createdAt,value
2019-05-12T00:00:48.760Z,85.03
2019-05-12T00:01:48.763Z,84.99
2019-05-12T00:02:48.803Z,85.08
2019-05-12T00:03:48.704Z,85.56
2019-05-12T00:04:48.934Z,85.28
2019-05-12T00:05:48.661Z,85.28
2019-05-12T00:06:48.642Z,85.18
2019-05-12T00:07:49.039Z,85.85
2019-05-12T00:08:48.847Z,85.56
2019-05-12T00:09:48.579Z,85.66
2019-05-12T00:10:48.569Z,85.75
2019-05-12T00:11:48.594Z,86.04
2019-05-12T00:12:48.690Z,85.37
2019-05-12T00:13:48.506Z,85.85
2019-05-12T00:14:48.638Z,85.85
2019-05-12T00:15:48.462Z,86.04
2019-05-12T00:16:49.074Z,86.22
2019-05-12T00:17:48.671Z,85.75
2019-05-12T00:18:48.454Z,85.94
2019-05-12T00:19:48.386Z,86.22
2019-05-12T00:20:48.366Z,85.66
2019-05-12T00:21:48.471Z,85.75
2019-05-12T00:22:48.798Z,86.22
2019-05-12T00:23:48.300Z,86.42
2019-05-12T00:24:48.284Z,86.32
2019-05-12T00:25:48.263Z,86.32
2019-05-12T00:26:48.241Z,86.22
2019-05-12T00:27:48.819Z,86.22
2019-05-12T00:28:48.296Z,85.94
2019-05-12T00:29:48.625Z,86.22
2019-05-12T00:30:48.743Z,86.42
2019-05-12T00:31:48.142Z,86.51
2019-05-12T00:32:48.130Z,86.42
2019-05-12T00:33:48.122Z,86.61
2019-05-12T00:34:48.181Z,86.61
2019-05-12T00:35:48.401Z,86.13
2019-05-12T00:36:48.528Z,86.70
2019-05-12T00:37:48.620Z,86.70
2019-05-12T00:38:48.552Z,86.22
2019-05-12T00:39:47.990Z,86.61
2019-05-12T00:40:48.093Z,86.80
2019-05-12T00:41:48.240Z,86.42
2019-05-12T00:42:48.525Z,86.42
2019-05-12T00:43:48.759Z,86.80
2019-05-12T00:44:48.006Z,86.99
2019-05-12T00:45:48.296Z,86.90
2019-05-12T00:46:48.748Z,86.70
2019-05-12T00:47:48.164Z,86.99
2019-05-12T00:48:48.300Z,86.90
2019-05-12T00:49:48.574Z,86.99
2019-05-12T00:50:48.535Z,86.90
2019-05-12T00:51:48.506Z,87.08
2019-05-12T00:52:48.926Z,86.90
2019-05-12T00:53:47.962Z,86.90
2019-05-12T00:54:48.334Z,86.80
2019-05-12T00:55:47.759Z,86.90
2019-05-12T00:56:48.250Z,86.80
2019-05-12T00:57:48.493Z,86.80
2019-05-12T00:58:48.761Z,86.90
2019-05-12T00:59:47.888Z,86.80
2019-05-12T01:00:48.279Z,87.46
2019-05-12T01:01:48.159Z,87.32
2019-05-12T01:02:48.608Z,87.42
2019-05-12T01:03:48.362Z,87.75
2019-05-12T01:04:48.725Z,87.94
2019-05-12T01:05:48.488Z,87.46
2019-05-12T01:06:48.569Z,87.61
2019-05-12T01:07:48.213Z,87.52
2019-05-12T01:08:48.389Z,87.71
2019-05-12T01:09:49.126Z,87.71
2019-05-12T01:10:47.978Z,87.90
2019-05-12T01:11:48.103Z,87.99
2019-05-12T01:12:48.633Z,88.04
2019-05-12T01:13:48.583Z,87.85
2019-05-12T01:14:47.775Z,87.99
2019-05-12T01:15:48.144Z,88.09
2019-05-12T01:16:48.652Z,87.99
2019-05-12T01:17:47.801Z,87.99
2019-05-12T01:18:47.993Z,88.66
2019-05-12T01:19:48.623Z,88.46
2019-05-12T01:20:47.973Z,88.46
2019-05-12T01:21:48.169Z,88.37
2019-05-12T01:22:50.354Z,88.28
2019-05-12T01:23:56.459Z,88.56
2019-05-12T01:24:48.316Z,88.46
2019-05-12T01:25:47.834Z,88.66
2019-05-12T01:26:47.616Z,88.46
2019-05-12T01:27:48.351Z,88.56
2019-05-12T01:28:48.792Z,88.56
2019-05-12T01:29:48.062Z,88.28
2019-05-12T01:30:47.943Z,88.56
2019-05-12T01:31:48.618Z,88.85
2019-05-12T01:32:48.371Z,88.94
2019-05-12T01:33:48.579Z,88.94
2019-05-12T01:34:48.640Z,88.85
2019-05-12T01:35:48.266Z,88.94
2019-05-12T01:36:48.310Z,88.66
2019-05-12T01:37:48.377Z,89.04
2019-05-12T01:38:48.267Z,89.23
2019-05-12T01:39:48.981Z,89.04
2019-05-12T01:40:47.906Z,89.04
2019-05-12T01:41:48.117Z,89.32
2019-05-12T01:42:48.363Z,89.14
2019-05-12T01:43:48.742Z,88.94
2019-05-12T01:44:48.170Z,89.23
2019-05-12T01:45:48.326Z,89.04
2019-05-12T01:46:48.351Z,89.14
2019-05-12T01:47:48.605Z,89.32
2019-05-12T01:48:48.412Z,89.23
2019-05-12T01:49:48.672Z,88.94
2019-05-12T01:50:47.545Z,89.42
2019-05-12T01:51:47.629Z,89.23
2019-05-12T01:52:47.871Z,89.23
2019-05-12T01:53:48.240Z,89.42
2019-05-12T01:54:48.343Z,89.14
2019-05-12T01:55:48.448Z,89.42
2019-05-12T01:56:48.350Z,89.51
2019-05-12T01:57:48.484Z,89.70
2019-05-12T01:58:48.424Z,89.70
2019-05-12T01:59:48.343Z,89.80
2019-05-12T02:00:48.284Z,89.70
2019-05-12T02:01:48.637Z,89.89
2019-05-12T02:02:48.100Z,89.61
2019-05-12T02:03:48.066Z,89.99
2019-05-12T02:04:48.338Z,90.08
2019-05-12T02:05:48.396Z,89.89
2019-05-12T02:06:48.415Z,89.99
2019-05-12T02:07:47.975Z,89.51
2019-05-12T02:08:47.751Z,89.80
2019-05-12T02:09:48.068Z,89.70
2019-05-12T02:10:48.098Z,90.08
2019-05-12T02:11:48.212Z,90.08
2019-05-12T02:12:48.418Z,90.18
2019-05-12T02:13:48.095Z,90.18
2019-05-12T02:14:48.526Z,89.51
2019-05-12T02:15:46.048Z,89.61
2019-05-12T02:16:47.744Z,90.08
2019-05-12T02:17:48.151Z,90.18
2019-05-12T02:18:45.987Z,89.80
2019-05-12T02:19:48.011Z,89.80
2019-05-12T02:20:48.167Z,89.99
2019-05-12T02:21:45.927Z,89.80
2019-05-12T02:22:47.766Z,90.18
2019-05-12T02:23:47.789Z,90.08
2019-05-12T02:24:47.892Z,90.37
2019-05-12T02:25:48.219Z,90.61
2019-05-12T02:26:45.833Z,90.56
2019-05-12T02:27:47.632Z,90.84
2019-05-12T02:28:47.901Z,90.42
2019-05-12T02:29:47.981Z,90.89
2019-05-12T02:30:45.744Z,90.99
2019-05-12T02:31:45.724Z,90.94
2019-05-12T02:32:53.140Z,90.52
2019-05-12T02:33:45.687Z,90.80
2019-05-12T02:34:45.855Z,90.47
2019-05-12T02:35:45.647Z,90.80
2019-05-12T02:36:45.624Z,91.03
2019-05-12T02:37:45.608Z,90.70
2019-05-12T02:38:45.587Z,90.89
2019-05-12T02:39:45.603Z,90.75
2019-05-12T02:40:45.542Z,91.13
2019-05-12T02:41:45.520Z,91.32
2019-05-12T02:42:46.607Z,90.75
2019-05-12T02:43:45.967Z,90.89
2019-05-12T02:44:45.463Z,91.03
2019-05-12T02:45:45.439Z,90.70
2019-05-12T02:46:45.423Z,90.75
2019-05-12T02:47:45.919Z,90.84
2019-05-12T02:48:45.378Z,90.33
2019-05-12T02:49:45.368Z,91.03
2019-05-12T02:50:45.411Z,91.18
2019-05-12T02:51:45.698Z,90.99
2019-05-12T02:52:45.294Z,90.80
2019-05-12T02:53:46.958Z,91.28
2019-05-12T02:54:55.245Z,91.08
2019-05-12T02:55:45.250Z,91.28
2019-05-12T02:56:45.213Z,90.80
2019-05-12T02:57:45.413Z,91.08
2019-05-12T02:58:45.403Z,91.22
2019-05-12T02:59:45.155Z,91.32
2019-05-12T03:00:45.720Z,90.70
2019-05-12T03:01:45.314Z,91.03
2019-05-12T03:02:45.089Z,90.70
2019-05-12T03:03:45.073Z,90.66
2019-05-12T03:04:45.053Z,90.75
2019-05-12T03:05:45.030Z,90.37
2019-05-12T03:06:45.190Z,91.03
2019-05-12T03:07:44.993Z,90.80
2019-05-12T03:08:45.023Z,90.84
2019-05-12T03:09:44.950Z,90.89
2019-05-12T03:10:44.998Z,91.47
2019-05-12T03:11:44.943Z,91.47
2019-05-12T03:12:45.204Z,91.08
2019-05-12T03:13:45.085Z,91.37
2019-05-12T03:14:44.908Z,90.80
2019-05-12T03:15:44.853Z,90.99
2019-05-12T03:16:45.490Z,91.08
2019-05-12T03:17:44.788Z,91.56
2019-05-12T03:18:45.165Z,91.08
2019-05-12T03:19:44.972Z,91.18
2019-05-12T03:20:45.547Z,91.08
2019-05-12T03:21:44.702Z,90.99
2019-05-12T03:22:45.042Z,90.89
2019-05-12T03:23:45.026Z,91.18
2019-05-12T03:24:44.987Z,91.13
2019-05-12T03:25:45.585Z,91.18
2019-05-12T03:26:45.136Z,91.03
2019-05-12T03:27:44.691Z,91.18
2019-05-12T03:28:44.849Z,91.13
2019-05-12T03:29:44.993Z,91.13
2019-05-12T03:30:48.474Z,91.61
2019-05-12T03:31:48.719Z,91.47
2019-05-12T03:32:47.187Z,91.66
2019-05-12T03:33:52.262Z,91.75
2019-05-12T03:34:47.318Z,91.51
2019-05-12T03:35:52.483Z,91.61
2019-05-12T03:36:50.892Z,91.32
2019-05-12T03:37:45.244Z,91.51
2019-05-12T03:38:44.866Z,91.42
2019-05-12T03:39:44.824Z,90.84
2019-05-12T03:40:45.292Z,91.51
2019-05-12T03:41:44.710Z,91.18
2019-05-12T03:42:44.615Z,91.22
2019-05-12T03:43:45.051Z,91.61
2019-05-12T03:44:44.616Z,91.80
2019-05-12T03:45:45.343Z,91.51
2019-05-12T03:46:45.669Z,91.61
2019-05-12T03:47:45.457Z,91.80
2019-05-12T03:48:45.383Z,91.32
2019-05-12T03:49:45.423Z,91.13
2019-05-12T03:50:46.036Z,91.03
2019-05-12T03:51:45.668Z,90.66
2019-05-12T03:52:44.943Z,91.51
2019-05-12T03:53:45.395Z,92.18
2019-05-12T03:54:45.188Z,91.80
2019-05-12T03:55:46.833Z,91.42
2019-05-12T03:56:45.037Z,91.47
2019-05-12T03:57:45.050Z,90.84
2019-05-12T03:58:45.199Z,90.94
2019-05-12T03:59:44.962Z,91.32
2019-05-12T04:00:44.717Z,91.32
2019-05-12T04:01:44.997Z,91.42
2019-05-12T04:02:45.371Z,91.13
2019-05-12T04:03:45.160Z,91.03
2019-05-12T04:04:45.280Z,91.03
2019-05-12T04:05:45.292Z,91.03
2019-05-12T04:06:45.257Z,91.13
2019-05-12T04:07:45.032Z,91.32
2019-05-12T04:08:45.661Z,91.32
2019-05-12T04:09:45.109Z,91.22
2019-05-12T04:10:45.344Z,91.22
2019-05-12T04:11:44.505Z,91.22
2019-05-12T04:12:44.797Z,91.13
2019-05-12T04:13:45.122Z,91.42
2019-05-12T04:14:44.906Z,91.13
2019-05-12T04:15:45.538Z,91.22
2019-05-12T04:16:45.189Z,91.32
2019-05-12T04:17:45.265Z,91.32
2019-05-12T04:18:45.053Z,91.32
2019-05-12T04:19:44.718Z,91.32
2019-05-12T04:20:45.230Z,90.66
2019-05-12T04:21:44.617Z,91.13
2019-05-12T04:22:44.643Z,90.94
2019-05-12T04:23:44.377Z,91.03
2019-05-12T04:24:44.566Z,90.08
2019-05-12T04:25:52.953Z,90.47
2019-05-12T04:26:44.858Z,90.56
2019-05-12T04:27:45.103Z,90.47
2019-05-12T04:28:45.533Z,90.47
2019-05-12T04:29:44.183Z,90.28
2019-05-12T04:30:44.558Z,90.47
2019-05-12T04:31:44.236Z,90.28
2019-05-12T04:32:45.186Z,90.18
2019-05-12T04:33:45.140Z,90.56
2019-05-12T04:34:44.698Z,89.99
2019-05-12T04:35:45.213Z,90.18
2019-05-12T04:36:44.956Z,90.56
2019-05-12T04:37:44.996Z,90.56
2019-05-12T04:38:44.996Z,90.47
2019-05-12T04:39:44.727Z,90.18
2019-05-12T04:40:45.072Z,90.18
2019-05-12T04:41:44.720Z,90.47
2019-05-12T04:42:45.249Z,90.47
2019-05-12T04:43:44.728Z,90.56
2019-05-12T04:44:44.867Z,90.56
2019-05-12T04:45:45.046Z,90.47
2019-05-12T04:46:45.045Z,90.47
2019-05-12T04:47:44.934Z,90.84
2019-05-12T04:48:45.241Z,90.84
2019-05-12T04:49:45.231Z,90.94
2019-05-12T04:50:45.257Z,90.56
2019-05-12T04:51:45.174Z,90.94
2019-05-12T04:52:44.550Z,90.66
2019-05-12T04:53:44.877Z,90.84
2019-05-12T04:54:44.441Z,90.75
2019-05-12T04:55:44.534Z,90.84
2019-05-12T04:56:44.627Z,91.13
2019-05-12T04:57:45.026Z,90.99
2019-05-12T04:58:45.012Z,90.80
2019-05-12T04:59:45.103Z,90.32
2019-05-12T05:00:44.844Z,90.22
2019-05-12T05:01:45.319Z,89.94
2019-05-12T05:02:45.555Z,89.65
2019-05-12T05:03:44.302Z,89.18
2019-05-12T05:04:44.118Z,89.18
2019-05-12T05:05:44.476Z,88.79
2019-05-12T05:06:44.850Z,88.60
2019-05-12T05:07:44.823Z,89.56
2019-05-12T05:08:44.213Z,88.79
2019-05-12T05:09:44.261Z,88.23
2019-05-12T05:10:44.354Z,88.99
2019-05-12T05:11:44.332Z,88.32
2019-05-12T05:12:45.024Z,88.46
2019-05-12T05:13:44.428Z,89.03
2019-05-12T05:14:44.612Z,88.84
2019-05-12T05:15:44.571Z,88.46
2019-05-12T05:16:45.020Z,88.37
2019-05-12T05:17:44.123Z,88.27
2019-05-12T05:18:43.946Z,88.08
2019-05-12T05:19:44.114Z,88.08
2019-05-12T05:20:43.818Z,87.79
2019-05-12T05:21:43.755Z,87.32
2019-05-12T05:22:43.994Z,87.79
2019-05-12T05:23:44.331Z,87.98
2019-05-12T05:24:44.303Z,87.98
2019-05-12T05:25:43.445Z,87.79
2019-05-12T05:26:43.601Z,87.23
2019-05-12T05:27:44.315Z,86.84
2019-05-12T05:28:43.566Z,87.41
2019-05-12T05:29:43.787Z,87.41
2019-05-12T05:30:44.084Z,86.94
2019-05-12T05:31:43.991Z,86.46
2019-05-12T05:32:44.276Z,86.84
2019-05-12T05:33:43.451Z,86.46
2019-05-12T05:34:46.268Z,86.75
2019-05-12T05:35:43.539Z,86.94
2019-05-12T05:36:43.339Z,86.94
2019-05-12T05:37:44.103Z,86.94
2019-05-12T05:38:43.692Z,86.65
2019-05-12T05:39:48.010Z,87.13
2019-05-12T05:40:43.523Z,86.84
2019-05-12T05:41:48.804Z,86.94
2019-05-12T05:42:43.879Z,86.94
2019-05-12T05:43:43.793Z,86.88
2019-05-12T05:44:43.480Z,86.98
2019-05-12T05:45:43.697Z,86.69
2019-05-12T05:46:48.236Z,86.88
2019-05-12T05:47:44.091Z,86.51
2019-05-12T05:48:43.996Z,86.51
2019-05-12T05:49:43.435Z,86.69
2019-05-12T05:50:43.797Z,86.69
2019-05-12T05:51:46.661Z,86.22
2019-05-12T05:52:43.779Z,86.22
2019-05-12T05:53:44.009Z,86.22
2019-05-12T05:54:43.843Z,86.22
2019-05-12T05:55:41.627Z,85.46
2019-05-12T05:56:48.452Z,85.46
2019-05-12T05:57:44.182Z,85.55
2019-05-12T05:58:46.993Z,86.41
2019-05-12T05:59:41.556Z,86.32
2019-05-12T06:00:43.505Z,86.12
2019-05-12T06:01:47.167Z,86.22
2019-05-12T06:02:43.910Z,86.22
2019-05-12T06:03:43.848Z,85.93
2019-05-12T06:04:45.420Z,86.03
2019-05-12T06:05:43.329Z,86.03
2019-05-12T06:06:42.476Z,85.93
2019-05-12T06:07:41.403Z,86.60
2019-05-12T06:08:41.381Z,86.22
2019-05-12T06:09:43.257Z,86.32
2019-05-12T06:10:43.383Z,86.03
2019-05-12T06:11:43.624Z,85.64
2019-05-12T06:12:48.633Z,85.93
2019-05-12T06:13:41.293Z,86.32
2019-05-12T06:14:51.649Z,86.32
2019-05-12T06:15:43.395Z,86.45
2019-05-12T06:16:43.287Z,85.69
2019-05-12T06:17:43.697Z,85.60
2019-05-12T06:18:43.750Z,85.88
2019-05-12T06:19:43.665Z,85.78
2019-05-12T06:20:43.558Z,85.69
2019-05-12T06:21:41.142Z,86.16
2019-05-12T06:22:43.610Z,85.97
2019-05-12T06:23:43.037Z,85.88
2019-05-12T06:24:41.081Z,86.26
2019-05-12T06:25:47.475Z,85.88
2019-05-12T06:26:54.574Z,85.78
2019-05-12T06:27:41.028Z,85.12
2019-05-12T06:28:41.827Z,84.45
2019-05-12T06:29:40.990Z,84.45
2019-05-12T06:30:47.091Z,83.88
2019-05-12T06:31:40.954Z,84.40
2019-05-12T06:32:45.950Z,84.49
2019-05-12T06:33:40.919Z,83.44
2019-05-12T06:34:40.895Z,83.44
2019-05-12T06:35:44.633Z,83.40
2019-05-12T06:36:40.858Z,83.73
2019-05-12T06:37:40.842Z,83.44
2019-05-12T06:38:40.825Z,83.40
2019-05-12T06:39:40.812Z,83.69
2019-05-12T06:40:42.475Z,83.31
2019-05-12T06:41:40.777Z,84.01
2019-05-12T06:42:40.750Z,84.07
2019-05-12T06:43:43.250Z,83.35
2019-05-12T06:44:40.726Z,84.30
2019-05-12T06:45:44.911Z,83.25
2019-05-12T06:46:40.685Z,83.54
2019-05-12T06:47:47.483Z,84.11
2019-05-12T06:48:43.260Z,83.25
2019-05-12T06:49:40.621Z,83.35
2019-05-12T06:50:40.606Z,83.16
2019-05-12T06:51:40.590Z,83.39
2019-05-12T06:52:46.817Z,83.11
2019-05-12T06:53:40.551Z,83.29
2019-05-12T06:54:44.637Z,82.24
2019-05-12T06:55:40.521Z,81.67
2019-05-12T06:56:40.497Z,81.71
2019-05-12T06:57:45.864Z,81.10
2019-05-12T06:58:40.459Z,81.29
2019-05-12T06:59:41.878Z,80.95
2019-05-12T07:00:40.426Z,80.95
2019-05-12T07:01:40.408Z,80.95
2019-05-12T07:02:50.075Z,81.04
2019-05-12T07:03:40.379Z,81.24
2019-05-12T07:04:41.281Z,81.33
2019-05-12T07:05:42.636Z,80.41
2019-05-12T07:06:40.325Z,80.22
2019-05-12T07:07:42.799Z,79.08
2019-05-12T07:08:40.288Z,78.60
2019-05-12T07:09:53.468Z,77.94
2019-05-12T07:10:44.309Z,78.13
2019-05-12T07:11:44.717Z,77.74
2019-05-12T07:12:58.207Z,78.51
2019-05-12T07:13:40.204Z,79.14
2019-05-12T07:14:40.188Z,80.90
2019-05-12T07:15:40.719Z,81.27
2019-05-12T07:16:40.154Z,80.17
2019-05-12T07:17:43.594Z,79.79
2019-05-12T07:18:40.129Z,79.31
2019-05-12T07:19:40.115Z,78.16
2019-05-12T07:20:40.090Z,76.86
2019-05-12T07:21:40.071Z,77.25
2019-05-12T07:22:44.170Z,76.77
2019-05-12T07:23:40.043Z,75.62
2019-05-12T07:24:40.889Z,75.71
2019-05-12T07:25:40.007Z,75.14
2019-05-12T07:26:39.991Z,74.48
2019-05-12T07:28:40.594Z,74.19
2019-05-12T07:29:39.943Z,73.65
2019-05-12T07:30:39.931Z,73.23
2019-05-12T07:31:39.911Z,72.28
2019-05-12T07:32:39.895Z,71.99
2019-05-12T07:33:41.894Z,72.94
2019-05-12T07:34:39.866Z,71.83
2019-05-12T07:35:39.849Z,70.68
2019-05-12T07:36:39.834Z,70.30
2019-05-12T07:37:39.823Z,70.59
2019-05-12T07:38:39.805Z,70.59
2019-05-12T07:39:45.400Z,70.17
2019-05-12T07:40:39.774Z,70.65
2019-05-12T07:41:42.260Z,72.66
2019-05-12T07:42:39.790Z,72.75
2019-05-12T07:43:39.724Z,71.80
2019-05-12T07:44:41.242Z,71.93
2019-05-12T07:45:39.696Z,71.36
2019-05-12T07:46:44.958Z,69.35
2019-05-12T07:47:39.661Z,68.29
2019-05-12T07:48:40.311Z,68.20
2019-05-12T07:49:39.637Z,67.72
2019-05-12T07:50:39.618Z,67.24
2019-05-12T07:51:40.796Z,67.53
2019-05-12T07:52:39.588Z,66.57
2019-05-12T07:53:39.568Z,66.09
2019-05-12T07:54:39.709Z,66.00
2019-05-12T07:55:44.460Z,67.72
2019-05-12T07:56:40.933Z,67.82
2019-05-12T07:57:52.049Z,68.55
2019-05-12T07:58:40.949Z,68.58
2019-05-12T07:59:41.162Z,67.40
2019-05-12T08:00:39.468Z,66.54
2019-05-12T08:01:46.577Z,67.40
2019-05-12T08:02:39.432Z,67.40
2019-05-12T08:03:39.415Z,67.02
2019-05-12T08:04:41.060Z,66.83
2019-05-12T08:05:39.390Z,68.07
2019-05-12T08:06:41.550Z,67.40
2019-05-12T08:07:39.359Z,67.49
2019-05-12T08:08:41.778Z,67.59
2019-05-12T08:09:39.323Z,67.59
2019-05-12T08:10:39.317Z,67.30
2019-05-12T08:11:39.298Z,67.88
2019-05-12T08:12:39.282Z,68.07
2019-05-12T08:13:40.955Z,67.78
2019-05-12T08:14:39.247Z,68.74
2019-05-12T08:15:44.358Z,67.78
2019-05-12T08:16:39.367Z,68.16
2019-05-12T08:17:39.216Z,67.40
2019-05-12T08:18:41.074Z,67.30
2019-05-12T08:19:39.168Z,66.76
2019-05-12T08:20:39.150Z,66.32
2019-05-12T08:21:43.639Z,63.60
2019-05-12T08:22:40.846Z,60.79
2019-05-12T08:23:39.115Z,58.62
2019-05-12T08:24:43.248Z,56.27
2019-05-12T08:25:39.091Z,53.97
2019-05-12T08:26:39.074Z,52.48
2019-05-12T08:27:44.038Z,50.68
2019-05-12T08:28:40.424Z,48.59
2019-05-12T08:29:39.045Z,47.24
2019-05-12T08:30:45.375Z,46.67
2019-05-12T08:31:40.751Z,46.11
2019-05-12T08:32:39.035Z,47.03
2019-05-12T08:33:39.007Z,48.23
2019-05-12T08:34:39.906Z,50.01
2019-05-12T08:35:39.001Z,51.28
2019-05-12T08:36:38.994Z,50.99
2019-05-12T08:37:38.975Z,52.40
2019-05-12T08:38:38.967Z,52.98
2019-05-12T08:39:39.114Z,54.01
2019-05-12T08:40:45.277Z,53.99
2019-05-12T08:41:38.951Z,55.01
2019-05-12T08:42:38.926Z,55.58
2019-05-12T08:43:40.633Z,56.23
2019-05-12T08:44:40.755Z,57.09
2019-05-12T08:45:38.893Z,56.93
2019-05-12T08:46:43.274Z,55.00
2019-05-12T08:47:39.087Z,52.87
2019-05-12T08:48:38.865Z,50.13
2019-05-12T08:49:50.080Z,48.25
2019-05-12T08:50:38.838Z,46.18
2019-05-12T08:51:38.831Z,44.01
2019-05-12T08:52:41.279Z,43.45
2019-05-12T08:53:38.815Z,42.04
2019-05-12T08:54:39.560Z,41.67
2019-05-12T08:55:38.802Z,38.87
2019-05-12T08:56:38.798Z,38.89
2019-05-12T08:57:40.645Z,37.63
2019-05-12T08:58:47.249Z,37.85
2019-05-12T08:59:38.794Z,37.57
2019-05-12T09:00:45.425Z,36.98
2019-05-12T09:01:38.777Z,38.74
2019-05-12T09:02:39.969Z,40.88
2019-05-12T09:03:38.752Z,42.47
2019-05-12T09:04:45.369Z,44.53
2019-05-12T09:05:38.909Z,47.27
2019-05-12T09:06:38.734Z,49.52
2019-05-12T09:07:39.997Z,51.49
2019-05-12T09:08:45.118Z,53.48
2019-05-12T09:09:38.708Z,54.89
2019-05-12T09:10:38.706Z,56.04
2019-05-12T09:11:38.731Z,56.81
2019-05-12T09:12:38.676Z,56.42
2019-05-12T09:13:38.670Z,56.32
2019-05-12T09:14:41.408Z,56.99
2019-05-12T09:15:38.657Z,56.93
2019-05-12T09:16:38.639Z,56.54
2019-05-12T09:17:49.045Z,56.83
2019-05-12T09:18:39.352Z,56.45
2019-05-12T09:19:38.604Z,56.16
2019-05-12T09:20:47.885Z,54.89
2019-05-12T09:21:38.580Z,54.89
2019-05-12T09:22:38.572Z,55.65
2019-05-12T09:23:40.982Z,55.85
2019-05-12T09:24:38.544Z,54.70
2019-05-12T09:25:39.473Z,53.77
2019-05-12T09:26:38.520Z,52.22
2019-05-12T09:27:39.438Z,49.38
2019-05-12T09:28:47.382Z,47.31
2019-05-12T09:29:38.485Z,45.46
2019-05-12T09:30:40.080Z,44.06
2019-05-12T09:31:38.476Z,44.10
2019-05-12T09:32:39.133Z,41.63
2019-05-12T09:33:38.437Z,39.06
2019-05-12T09:34:38.428Z,37.73
2019-05-12T09:35:39.406Z,36.76
2019-05-12T09:36:38.407Z,36.98
2019-05-12T09:37:40.299Z,36.70
2019-05-12T09:38:40.924Z,35.72
2019-05-12T09:39:42.788Z,35.05
2019-05-12T09:40:38.376Z,34.84
2019-05-12T09:41:42.351Z,36.22
2019-05-12T09:42:38.352Z,38.78
2019-05-12T09:43:40.193Z,39.70
2019-05-12T09:44:41.245Z,40.12
2019-05-12T09:45:40.097Z,41.62
2019-05-12T09:46:38.324Z,43.64
2019-05-12T09:47:38.303Z,42.91
2019-05-12T09:48:39.170Z,42.22
2019-05-12T09:49:39.510Z,43.81
2019-05-12T09:50:38.262Z,45.59
2019-05-12T09:51:43.715Z,43.90
2019-05-12T09:52:38.242Z,43.88
2019-05-12T09:53:42.810Z,43.95
2019-05-12T09:54:40.809Z,43.71
2019-05-12T09:55:38.206Z,43.96
2019-05-12T09:56:41.103Z,45.30
2019-05-12T09:57:40.654Z,45.15
2019-05-12T09:58:38.180Z,45.14
2019-05-12T09:59:38.162Z,44.89
2019-05-12T10:00:38.149Z,44.38
2019-05-12T10:01:39.593Z,42.80
2019-05-12T10:02:38.124Z,39.84
2019-05-12T10:03:39.987Z,37.98
2019-05-12T10:04:38.123Z,37.63
2019-05-12T10:05:41.194Z,37.95
2019-05-12T10:06:38.078Z,38.16
2019-05-12T10:07:38.076Z,37.52
2019-05-12T10:08:38.063Z,37.15
2019-05-12T10:09:38.043Z,36.49
2019-05-12T10:10:40.205Z,34.94
2019-05-12T10:11:38.038Z,34.54
2019-05-12T10:12:45.056Z,35.72
2019-05-12T10:13:38.001Z,33.86
2019-05-12T10:14:40.769Z,32.89
2019-05-12T10:15:37.975Z,33.28
2019-05-12T10:16:39.422Z,33.10
2019-05-12T10:17:37.966Z,31.93
2019-05-12T10:18:42.992Z,32.41
2019-05-12T10:19:37.943Z,32.33
2019-05-12T10:20:39.844Z,33.20
2019-05-12T10:21:37.912Z,33.36
2019-05-12T10:22:40.215Z,34.68
2019-05-12T10:23:37.889Z,36.48
2019-05-12T10:24:41.496Z,36.83
2019-05-12T10:25:37.876Z,37.58
2019-05-12T10:26:41.224Z,38.43
2019-05-12T10:27:37.841Z,40.24
2019-05-12T10:28:37.825Z,40.11
2019-05-12T10:29:37.826Z,41.06
2019-05-12T10:30:37.804Z,41.62
2019-05-12T10:31:39.410Z,42.47
2019-05-12T10:32:37.780Z,42.71
2019-05-12T10:33:37.774Z,44.34
2019-05-12T10:34:40.284Z,44.84
2019-05-12T10:35:37.748Z,44.65
2019-05-12T10:36:39.198Z,44.37
2019-05-12T10:37:37.720Z,44.17
2019-05-12T10:38:37.702Z,44.38
2019-05-12T10:39:37.695Z,44.22
2019-05-12T10:40:37.690Z,43.95
2019-05-12T10:41:37.665Z,43.20
2019-05-12T10:42:39.738Z,43.82
2019-05-12T10:43:37.639Z,42.28
2019-05-12T10:44:40.825Z,41.92
2019-05-12T10:45:37.618Z,39.62
2019-05-12T10:46:37.601Z,38.37
2019-05-12T10:47:37.597Z,37.62
2019-05-12T10:48:37.578Z,37.71
2019-05-12T10:49:37.571Z,36.54
2019-05-12T10:50:37.562Z,36.83
2019-05-12T10:51:37.557Z,35.94
2019-05-12T10:52:39.087Z,36.33
2019-05-12T10:53:37.518Z,38.04
2019-05-12T10:54:37.506Z,38.31
2019-05-12T10:55:37.497Z,39.06
2019-05-12T10:56:37.483Z,40.12
2019-05-12T10:57:37.474Z,40.14
2019-05-12T10:58:37.470Z,39.87
2019-05-12T10:59:38.725Z,39.29
2019-05-12T11:00:37.436Z,40.19
2019-05-12T11:01:38.587Z,39.70
2019-05-12T11:02:37.411Z,37.96
2019-05-12T11:03:43.032Z,38.26
2019-05-12T11:04:41.149Z,37.87
2019-05-12T11:05:37.379Z,37.87
2019-05-12T11:06:39.626Z,37.96
2019-05-12T11:07:37.352Z,38.54
2019-05-12T11:08:41.413Z,38.83
2019-05-12T11:09:37.329Z,38.64
2019-05-12T11:10:37.329Z,38.62
2019-05-12T11:11:42.486Z,39.11
2019-05-12T11:12:37.295Z,39.11
2019-05-12T11:13:40.221Z,39.68
2019-05-12T11:14:37.273Z,40.45
2019-05-12T11:15:39.493Z,39.12
2019-05-12T11:16:37.272Z,40.47
2019-05-12T11:17:40.263Z,40.59
2019-05-12T11:18:37.232Z,39.20
2019-05-12T11:19:40.732Z,39.11
2019-05-12T11:20:37.200Z,39.68
2019-05-12T11:21:37.189Z,40.14
2019-05-12T11:22:37.182Z,40.26
2019-05-12T11:23:37.175Z,40.26
2019-05-12T11:24:37.153Z,39.51
2019-05-12T11:25:37.144Z,40.09
2019-05-12T11:26:37.133Z,40.16
2019-05-12T11:27:37.116Z,40.57
2019-05-12T11:28:37.103Z,37.95
2019-05-12T11:29:45.956Z,37.66
2019-05-12T11:30:37.079Z,38.83
2019-05-12T11:31:37.071Z,39.12
2019-05-12T11:32:38.012Z,41.24
2019-05-12T11:33:37.046Z,41.03
2019-05-12T11:34:37.050Z,41.88
2019-05-12T11:35:37.019Z,40.05
2019-05-12T11:36:37.015Z,39.59
2019-05-12T11:37:37.005Z,41.11
2019-05-12T11:38:36.990Z,41.30
2019-05-12T11:39:44.294Z,40.07
2019-05-12T11:40:36.978Z,38.31
2019-05-12T11:41:36.954Z,39.11
2019-05-12T11:42:36.939Z,40.16
2019-05-12T11:43:36.927Z,40.26
2019-05-12T11:44:36.915Z,40.07
2019-05-12T11:45:36.909Z,40.57
2019-05-12T11:46:36.892Z,39.91
2019-05-12T11:47:37.365Z,38.95
2019-05-12T11:48:40.397Z,38.87
2019-05-12T11:49:36.869Z,37.71
2019-05-12T11:50:40.522Z,37.33
2019-05-12T11:51:36.838Z,36.73
2019-05-12T11:52:36.833Z,37.87
2019-05-12T11:53:36.819Z,37.77
2019-05-12T11:54:41.254Z,38.62
2019-05-12T11:55:36.806Z,39.11
2019-05-12T11:56:40.399Z,39.29
2019-05-12T11:57:36.769Z,38.72
2019-05-12T11:58:41.350Z,40.16
2019-05-12T11:59:36.745Z,40.45
2019-05-12T12:00:36.737Z,40.14
2019-05-12T12:01:39.613Z,40.43
2019-05-12T12:02:36.710Z,40.53
2019-05-12T12:03:36.701Z,39.74
2019-05-12T12:04:36.693Z,40.31
2019-05-12T12:05:38.399Z,40.22
2019-05-12T12:06:36.674Z,40.61
2019-05-12T12:07:39.413Z,40.88
2019-05-12T12:08:37.387Z,42.12
2019-05-12T12:09:36.625Z,41.64
2019-05-12T12:10:39.809Z,42.03
2019-05-12T12:11:36.609Z,42.68
2019-05-12T12:12:39.500Z,42.58
2019-05-12T12:13:36.585Z,43.14
2019-05-12T12:14:40.165Z,42.85
2019-05-12T12:15:36.548Z,42.47
2019-05-12T12:16:41.921Z,43.14
2019-05-12T12:17:36.525Z,42.85
2019-05-12T12:18:36.520Z,44.00
2019-05-12T12:19:43.641Z,44.20
2019-05-12T12:20:36.497Z,43.88
2019-05-12T12:21:40.453Z,43.79
2019-05-12T12:22:36.457Z,44.27
2019-05-12T12:23:41.003Z,45.61
2019-05-12T12:24:38.307Z,45.42
2019-05-12T12:25:36.414Z,44.84
2019-05-12T12:26:37.292Z,44.94
2019-05-12T12:27:36.388Z,45.40
2019-05-12T12:28:36.377Z,45.71
2019-05-12T12:29:36.372Z,45.50
2019-05-12T12:30:36.349Z,45.95
2019-05-12T12:31:38.883Z,46.05
2019-05-12T12:32:36.328Z,46.62
2019-05-12T12:33:40.514Z,46.70
2019-05-12T12:34:36.292Z,47.77
2019-05-12T12:35:36.289Z,47.68
2019-05-12T12:36:36.267Z,47.20
2019-05-12T12:37:36.262Z,47.39
2019-05-12T12:38:36.239Z,48.07
2019-05-12T12:39:36.229Z,47.58
2019-05-12T12:40:36.216Z,47.68
2019-05-12T12:41:36.210Z,47.49
2019-05-12T12:42:43.718Z,47.68
2019-05-12T12:43:36.171Z,48.04
2019-05-12T12:44:36.167Z,48.71
2019-05-12T12:45:40.060Z,48.71
2019-05-12T12:46:36.127Z,49.02
2019-05-12T12:47:46.704Z,49.02
2019-05-12T12:48:36.101Z,48.74
2019-05-12T12:49:39.921Z,48.76
2019-05-12T12:50:36.073Z,49.72
2019-05-12T12:51:36.059Z,48.59
2019-05-12T12:52:38.626Z,47.53
2019-05-12T12:53:36.041Z,48.11